sensor_id;sensor_type;location;lat;lon;timestamp;P1;durP1;ratioP1;P2;durP2;ratioP2
71204;SDS011;58935;54.498;18.544;2023-10-31T00:00:47;31.50;;;15.00;;
71204;SDS011;58935;54.498;18.544;2023-10-31T00:03:13;24.20;;;14.10;;
71204;SDS011;58935;54.498;18.544;2023-10-31T00:05:38;27.60;;;13.50;;
71204;SDS011;58935;54.498;18.544;2023-10-31T00:08:04;26.60;;;13.20;;
71204;SDS011;58935;54.498;18.544;2023-10-31T00:10:29;18.00;;;12.10;;
71204;SDS011;58935;54.498;18.544;2023-10-31T00:12:55;24.80;;;13.90;;
71204;SDS011;58935;54.498;18.544;2023-10-31T00:15:20;20.70;;;13.10;;
71204;SDS011;58935;54.498;18.544;2023-10-31T00:17:48;21.90;;;13.20;;
71204;SDS011;58935;54.498;18.544;2023-10-31T00:20:13;22.70;;;13.30;;
71204;SDS011;58935;54.498;18.544;2023-10-31T00:22:39;21.80;;;14.10;;
71204;SDS011;58935;54.498;18.544;2023-10-31T00:25:04;23.00;;;15.20;;
71204;SDS011;58935;54.498;18.544;2023-10-31T00:27:31;32.60;;;15.60;;
71204;SDS011;58935;54.498;18.544;2023-10-31T00:29:56;27.50;;;16.40;;
71204;SDS011;58935;54.498;18.544;2023-10-31T00:32:23;27.10;;;15.60;;
71204;SDS011;58935;54.498;18.544;2023-10-31T00:34:51;26.50;;;16.20;;
71204;SDS011;58935;54.498;18.544;2023-10-31T00:37:16;26.50;;;15.60;;
71204;SDS011;58935;54.498;18.544;2023-10-31T00:39:41;27.30;;;14.90;;
71204;SDS011;58935;54.498;18.544;2023-10-31T00:42:07;24.30;;;14.60;;
71204;SDS011;58935;54.498;18.544;2023-10-31T00:44:34;26.80;;;15.90;;
71204;SDS011;58935;54.498;18.544;2023-10-31T00:47:00;26.30;;;16.80;;
71204;SDS011;58935;54.498;18.544;2023-10-31T00:49:25;33.30;;;16.10;;
71204;SDS011;58935;54.498;18.544;2023-10-31T00:51:50;24.30;;;16.20;;
71204;SDS011;58935;54.498;18.544;2023-10-31T00:54:16;29.10;;;16.10;;
71204;SDS011;58935;54.498;18.544;2023-10-31T00:56:41;35.40;;;17.20;;
71204;SDS011;58935;54.498;18.544;2023-10-31T00:59:06;37.30;;;16.90;;
71204;SDS011;58935;54.498;18.544;2023-10-31T01:01:32;30.40;;;16.80;;
71204;SDS011;58935;54.498;18.544;2023-10-31T01:03:57;29.60;;;17.00;;
71204;SDS011;58935;54.498;18.544;2023-10-31T01:06:22;26.30;;;16.90;;
71204;SDS011;58935;54.498;18.544;2023-10-31T01:08:48;26.70;;;16.80;;
71204;SDS011;58935;54.498;18.544;2023-10-31T01:11:13;29.90;;;17.00;;
71204;SDS011;58935;54.498;18.544;2023-10-31T01:13:38;32.40;;;16.40;;
71204;SDS011;58935;54.498;18.544;2023-10-31T01:16:06;36.00;;;17.80;;
71204;SDS011;58935;54.498;18.544;2023-10-31T01:18:34;32.30;;;17.70;;
71204;SDS011;58935;54.498;18.544;2023-10-31T01:21:02;33.30;;;17.60;;
71204;SDS011;58935;54.498;18.544;2023-10-31T01:23:28;33.60;;;17.70;;
71204;SDS011;58935;54.498;18.544;2023-10-31T01:25:53;27.90;;;17.90;;
71204;SDS011;58935;54.498;18.544;2023-10-31T01:28:19;39.70;;;18.00;;
71204;SDS011;58935;54.498;18.544;2023-10-31T01:30:44;37.80;;;19.20;;
71204;SDS011;58935;54.498;18.544;2023-10-31T01:33:09;34.10;;;17.90;;
71204;SDS011;58935;54.498;18.544;2023-10-31T01:35:35;34.20;;;18.40;;
71204;SDS011;58935;54.498;18.544;2023-10-31T01:38:00;34.00;;;18.00;;
71204;SDS011;58935;54.498;18.544;2023-10-31T01:40:26;35.50;;;18.70;;
71204;SDS011;58935;54.498;18.544;2023-10-31T01:42:51;35.00;;;18.30;;
71204;SDS011;58935;54.498;18.544;2023-10-31T01:45:19;38.30;;;19.00;;
71204;SDS011;58935;54.498;18.544;2023-10-31T01:47:47;37.40;;;19.80;;
71204;SDS011;58935;54.498;18.544;2023-10-31T01:50:14;49.70;;;22.30;;
71204;SDS011;58935;54.498;18.544;2023-10-31T01:52:41;48.30;;;22.30;;
71204;SDS011;58935;54.498;18.544;2023-10-31T01:55:06;46.20;;;21.70;;
71204;SDS011;58935;54.498;18.544;2023-10-31T01:57:33;42.30;;;21.40;;
71204;SDS011;58935;54.498;18.544;2023-10-31T01:59:59;38.00;;;20.20;;
71204;SDS011;58935;54.498;18.544;2023-10-31T02:02:25;38.70;;;21.20;;
71204;SDS011;58935;54.498;18.544;2023-10-31T02:04:56;44.50;;;22.30;;
71204;SDS011;58935;54.498;18.544;2023-10-31T02:07:22;40.30;;;21.50;;
71204;SDS011;58935;54.498;18.544;2023-10-31T02:09:49;35.80;;;20.40;;
71204;SDS011;58935;54.498;18.544;2023-10-31T02:14:49;34.90;;;19.30;;
71204;SDS011;58935;54.498;18.544;2023-10-31T02:17:14;30.30;;;19.70;;
71204;SDS011;58935;54.498;18.544;2023-10-31T02:19:42;41.60;;;19.00;;
71204;SDS011;58935;54.498;18.544;2023-10-31T02:22:07;42.40;;;19.30;;
71204;SDS011;58935;54.498;18.544;2023-10-31T02:24:33;40.10;;;19.70;;
71204;SDS011;58935;54.498;18.544;2023-10-31T02:27:00;40.50;;;20.40;;
71204;SDS011;58935;54.498;18.544;2023-10-31T02:29:28;36.80;;;19.40;;
71204;SDS011;58935;54.498;18.544;2023-10-31T02:31:53;34.10;;;19.00;;
71204;SDS011;58935;54.498;18.544;2023-10-31T02:34:20;39.80;;;19.80;;
71204;SDS011;58935;54.498;18.544;2023-10-31T02:36:45;40.80;;;19.20;;
71204;SDS011;58935;54.498;18.544;2023-10-31T02:39:10;45.40;;;20.40;;
71204;SDS011;58935;54.498;18.544;2023-10-31T02:41:36;52.70;;;19.70;;
71204;SDS011;58935;54.498;18.544;2023-10-31T02:44:01;33.90;;;19.10;;
71204;SDS011;58935;54.498;18.544;2023-10-31T02:46:27;32.90;;;17.60;;
71204;SDS011;58935;54.498;18.544;2023-10-31T02:48:52;28.20;;;17.10;;
71204;SDS011;58935;54.498;18.544;2023-10-31T02:51:17;33.80;;;17.80;;
71204;SDS011;58935;54.498;18.544;2023-10-31T02:53:43;28.40;;;16.80;;
71204;SDS011;58935;54.498;18.544;2023-10-31T02:56:08;34.50;;;15.50;;
71204;SDS011;58935;54.498;18.544;2023-10-31T02:58:33;34.30;;;16.80;;
71204;SDS011;58935;54.498;18.544;2023-10-31T03:01:01;27.80;;;15.20;;
71204;SDS011;58935;54.498;18.544;2023-10-31T03:03:27;24.10;;;15.10;;
71204;SDS011;58935;54.498;18.544;2023-10-31T03:05:52;29.20;;;14.30;;
71204;SDS011;58935;54.498;18.544;2023-10-31T03:08:17;20.30;;;13.00;;
71204;SDS011;58935;54.498;18.544;2023-10-31T03:10:47;21.90;;;13.70;;
71204;SDS011;58935;54.498;18.544;2023-10-31T03:13:17;23.10;;;14.60;;
71204;SDS011;58935;54.498;18.544;2023-10-31T03:15:43;23.60;;;14.20;;
71204;SDS011;58935;54.498;18.544;2023-10-31T03:18:09;24.50;;;14.20;;
71204;SDS011;58935;54.498;18.544;2023-10-31T03:20:37;23.20;;;13.40;;
71204;SDS011;58935;54.498;18.544;2023-10-31T03:23:04;19.90;;;13.10;;
71204;SDS011;58935;54.498;18.544;2023-10-31T03:25:29;22.70;;;12.90;;
71204;SDS011;58935;54.498;18.544;2023-10-31T03:27:55;26.80;;;12.90;;
71204;SDS011;58935;54.498;18.544;2023-10-31T03:30:22;26.40;;;13.20;;
71204;SDS011;58935;54.498;18.544;2023-10-31T03:32:50;21.30;;;12.10;;
71204;SDS011;58935;54.498;18.544;2023-10-31T03:35:20;21.00;;;12.60;;
71204;SDS011;58935;54.498;18.544;2023-10-31T03:37:47;19.10;;;12.60;;
71204;SDS011;58935;54.498;18.544;2023-10-31T03:40:15;23.60;;;12.60;;
71204;SDS011;58935;54.498;18.544;2023-10-31T03:42:40;21.50;;;13.30;;
71204;SDS011;58935;54.498;18.544;2023-10-31T03:45:09;22.00;;;14.10;;
71204;SDS011;58935;54.498;18.544;2023-10-31T03:47:34;23.40;;;13.40;;
71204;SDS011;58935;54.498;18.544;2023-10-31T03:49:59;23.10;;;12.70;;
71204;SDS011;58935;54.498;18.544;2023-10-31T03:52:25;20.70;;;12.30;;
71204;SDS011;58935;54.498;18.544;2023-10-31T03:54:50;16.90;;;12.60;;
71204;SDS011;58935;54.498;18.544;2023-10-31T03:57:15;22.00;;;13.10;;
71204;SDS011;58935;54.498;18.544;2023-10-31T03:59:41;17.20;;;12.20;;
71204;SDS011;58935;54.498;18.544;2023-10-31T04:02:06;20.90;;;11.70;;
71204;SDS011;58935;54.498;18.544;2023-10-31T04:04:31;19.80;;;12.10;;
71204;SDS011;58935;54.498;18.544;2023-10-31T04:06:59;17.10;;;11.60;;
71204;SDS011;58935;54.498;18.544;2023-10-31T04:09:24;25.40;;;12.80;;
71204;SDS011;58935;54.498;18.544;2023-10-31T04:11:50;21.40;;;12.10;;
71204;SDS011;58935;54.498;18.544;2023-10-31T04:14:17;16.10;;;11.80;;
71204;SDS011;58935;54.498;18.544;2023-10-31T04:16:43;18.90;;;12.10;;
71204;SDS011;58935;54.498;18.544;2023-10-31T04:19:12;17.90;;;11.90;;
71204;SDS011;58935;54.498;18.544;2023-10-31T04:21:38;21.20;;;11.70;;
71204;SDS011;58935;54.498;18.544;2023-10-31T04:24:04;16.40;;;11.90;;
71204;SDS011;58935;54.498;18.544;2023-10-31T04:26:30;17.10;;;11.70;;
71204;SDS011;58935;54.498;18.544;2023-10-31T04:28:55;20.00;;;12.00;;
71204;SDS011;58935;54.498;18.544;2023-10-31T04:31:23;18.50;;;12.50;;
71204;SDS011;58935;54.498;18.544;2023-10-31T04:33:49;17.90;;;11.70;;
71204;SDS011;58935;54.498;18.544;2023-10-31T04:36:15;20.40;;;11.30;;
71204;SDS011;58935;54.498;18.544;2023-10-31T04:38:40;23.20;;;12.60;;
71204;SDS011;58935;54.498;18.544;2023-10-31T04:41:07;16.60;;;11.60;;
71204;SDS011;58935;54.498;18.544;2023-10-31T04:43:33;21.00;;;11.40;;
71204;SDS011;58935;54.498;18.544;2023-10-31T04:46:01;18.40;;;11.30;;
71204;SDS011;58935;54.498;18.544;2023-10-31T04:48:29;17.60;;;11.40;;
71204;SDS011;58935;54.498;18.544;2023-10-31T04:50:54;24.20;;;11.10;;
71204;SDS011;58935;54.498;18.544;2023-10-31T04:53:21;17.30;;;10.70;;
71204;SDS011;58935;54.498;18.544;2023-10-31T04:55:47;26.80;;;13.10;;
71204;SDS011;58935;54.498;18.544;2023-10-31T04:58:12;19.20;;;11.60;;
71204;SDS011;58935;54.498;18.544;2023-10-31T05:00:37;19.60;;;12.00;;
71204;SDS011;58935;54.498;18.544;2023-10-31T05:03:03;19.90;;;12.00;;
71204;SDS011;58935;54.498;18.544;2023-10-31T05:05:28;25.40;;;11.80;;
71204;SDS011;58935;54.498;18.544;2023-10-31T05:07:53;18.10;;;11.00;;
71204;SDS011;58935;54.498;18.544;2023-10-31T05:10:21;18.90;;;12.10;;
71204;SDS011;58935;54.498;18.544;2023-10-31T05:12:46;16.70;;;12.00;;
71204;SDS011;58935;54.498;18.544;2023-10-31T05:15:12;17.10;;;11.20;;
71204;SDS011;58935;54.498;18.544;2023-10-31T05:17:39;14.90;;;11.40;;
71204;SDS011;58935;54.498;18.544;2023-10-31T05:20:05;16.80;;;12.00;;
71204;SDS011;58935;54.498;18.544;2023-10-31T05:22:31;15.40;;;11.40;;
71204;SDS011;58935;54.498;18.544;2023-10-31T05:24:56;18.50;;;11.70;;
71204;SDS011;58935;54.498;18.544;2023-10-31T05:27:22;19.10;;;10.40;;
71204;SDS011;58935;54.498;18.544;2023-10-31T05:29:47;18.40;;;10.80;;
71204;SDS011;58935;54.498;18.544;2023-10-31T05:32:13;15.50;;;11.30;;
71204;SDS011;58935;54.498;18.544;2023-10-31T05:34:38;15.60;;;10.60;;
71204;SDS011;58935;54.498;18.544;2023-10-31T05:37:03;16.30;;;9.90;;
71204;SDS011;58935;54.498;18.544;2023-10-31T05:39:31;17.80;;;10.80;;
71204;SDS011;58935;54.498;18.544;2023-10-31T05:41:56;110.60;;;92.30;;
71204;SDS011;58935;54.498;18.544;2023-10-31T05:44:22;31.20;;;19.60;;
71204;SDS011;58935;54.498;18.544;2023-10-31T05:46:49;20.20;;;13.20;;
71204;SDS011;58935;54.498;18.544;2023-10-31T05:49:15;17.90;;;11.10;;
71204;SDS011;58935;54.498;18.544;2023-10-31T05:51:41;17.40;;;11.30;;
71204;SDS011;58935;54.498;18.544;2023-10-31T05:54:07;17.40;;;10.90;;
71204;SDS011;58935;54.498;18.544;2023-10-31T05:56:33;18.30;;;10.70;;
71204;SDS011;58935;54.498;18.544;2023-10-31T05:58:58;21.50;;;11.20;;
71204;SDS011;58935;54.498;18.544;2023-10-31T06:01:23;22.50;;;10.70;;
71204;SDS011;58935;54.498;18.544;2023-10-31T06:03:49;20.70;;;11.20;;
71204;SDS011;58935;54.498;18.544;2023-10-31T06:06:14;23.70;;;11.60;;
71204;SDS011;58935;54.498;18.544;2023-10-31T06:08:40;20.00;;;11.50;;
71204;SDS011;58935;54.498;18.544;2023-10-31T06:11:07;27.10;;;11.70;;
71204;SDS011;58935;54.498;18.544;2023-10-31T06:13:35;18.10;;;10.40;;
71204;SDS011;58935;54.498;18.544;2023-10-31T06:16:00;19.40;;;12.10;;
71204;SDS011;58935;54.498;18.544;2023-10-31T06:18:29;20.50;;;12.10;;
71204;SDS011;58935;54.498;18.544;2023-10-31T06:20:57;22.30;;;11.80;;
71204;SDS011;58935;54.498;18.544;2023-10-31T06:23:22;24.10;;;11.70;;
71204;SDS011;58935;54.498;18.544;2023-10-31T06:25:50;20.30;;;12.20;;
71204;SDS011;58935;54.498;18.544;2023-10-31T06:28:15;25.60;;;12.60;;
71204;SDS011;58935;54.498;18.544;2023-10-31T06:30:41;22.70;;;11.90;;
71204;SDS011;58935;54.498;18.544;2023-10-31T06:33:06;22.60;;;13.00;;
71204;SDS011;58935;54.498;18.544;2023-10-31T06:35:33;19.90;;;12.10;;
71204;SDS011;58935;54.498;18.544;2023-10-31T06:38:00;17.70;;;11.60;;
71204;SDS011;58935;54.498;18.544;2023-10-31T06:40:26;28.00;;;14.30;;
71204;SDS011;58935;54.498;18.544;2023-10-31T06:42:54;33.90;;;16.60;;
71204;SDS011;58935;54.498;18.544;2023-10-31T06:45:21;24.00;;;14.70;;
71204;SDS011;58935;54.498;18.544;2023-10-31T06:47:47;30.90;;;14.10;;
71204;SDS011;58935;54.498;18.544;2023-10-31T06:50:14;28.30;;;13.20;;
71204;SDS011;58935;54.498;18.544;2023-10-31T06:52:42;23.10;;;13.10;;
71204;SDS011;58935;54.498;18.544;2023-10-31T06:55:07;20.40;;;13.50;;
71204;SDS011;58935;54.498;18.544;2023-10-31T06:57:33;23.70;;;13.80;;
71204;SDS011;58935;54.498;18.544;2023-10-31T06:59:58;25.40;;;16.20;;
71204;SDS011;58935;54.498;18.544;2023-10-31T07:02:24;22.40;;;13.90;;
71204;SDS011;58935;54.498;18.544;2023-10-31T07:04:50;19.50;;;12.80;;
71204;SDS011;58935;54.498;18.544;2023-10-31T07:07:16;20.40;;;13.30;;
71204;SDS011;58935;54.498;18.544;2023-10-31T07:09:43;27.10;;;13.00;;
71204;SDS011;58935;54.498;18.544;2023-10-31T07:12:09;19.90;;;12.90;;
71204;SDS011;58935;54.498;18.544;2023-10-31T07:14:34;20.20;;;13.80;;
71204;SDS011;58935;54.498;18.544;2023-10-31T07:17:00;18.10;;;13.80;;
71204;SDS011;58935;54.498;18.544;2023-10-31T07:19:25;21.70;;;14.20;;
71204;SDS011;58935;54.498;18.544;2023-10-31T07:21:50;21.50;;;14.40;;
71204;SDS011;58935;54.498;18.544;2023-10-31T07:24:16;20.00;;;13.70;;
71204;SDS011;58935;54.498;18.544;2023-10-31T07:26:41;24.60;;;14.30;;
71204;SDS011;58935;54.498;18.544;2023-10-31T07:29:07;20.20;;;13.70;;
71204;SDS011;58935;54.498;18.544;2023-10-31T07:31:32;29.60;;;16.80;;
71204;SDS011;58935;54.498;18.544;2023-10-31T07:34:00;20.10;;;13.70;;
71204;SDS011;58935;54.498;18.544;2023-10-31T07:36:26;21.10;;;13.70;;
71204;SDS011;58935;54.498;18.544;2023-10-31T07:38:54;23.80;;;15.70;;
71204;SDS011;58935;54.498;18.544;2023-10-31T07:41:20;21.60;;;15.10;;
71204;SDS011;58935;54.498;18.544;2023-10-31T07:43:45;23.20;;;13.70;;
71204;SDS011;58935;54.498;18.544;2023-10-31T07:46:12;16.70;;;13.90;;
71204;SDS011;58935;54.498;18.544;2023-10-31T07:48:38;18.70;;;12.30;;
71204;SDS011;58935;54.498;18.544;2023-10-31T07:51:05;20.20;;;13.60;;
71204;SDS011;58935;54.498;18.544;2023-10-31T07:53:30;17.40;;;13.30;;
71204;SDS011;58935;54.498;18.544;2023-10-31T07:55:56;19.60;;;13.60;;
71204;SDS011;58935;54.498;18.544;2023-10-31T07:58:21;19.60;;;14.60;;
71204;SDS011;58935;54.498;18.544;2023-10-31T08:00:46;19.70;;;14.80;;
71204;SDS011;58935;54.498;18.544;2023-10-31T08:03:12;21.00;;;14.10;;
71204;SDS011;58935;54.498;18.544;2023-10-31T08:05:37;21.50;;;15.20;;
71204;SDS011;58935;54.498;18.544;2023-10-31T08:08:03;20.20;;;13.10;;
71204;SDS011;58935;54.498;18.544;2023-10-31T08:10:30;21.40;;;13.60;;
71204;SDS011;58935;54.498;18.544;2023-10-31T08:12:58;22.20;;;13.60;;
71204;SDS011;58935;54.498;18.544;2023-10-31T08:15:23;23.10;;;14.50;;
71204;SDS011;58935;54.498;18.544;2023-10-31T08:17:49;21.60;;;15.90;;
71204;SDS011;58935;54.498;18.544;2023-10-31T08:20:14;25.00;;;15.40;;
71204;SDS011;58935;54.498;18.544;2023-10-31T08:22:39;19.60;;;13.50;;
71204;SDS011;58935;54.498;18.544;2023-10-31T08:25:07;21.50;;;14.00;;
71204;SDS011;58935;54.498;18.544;2023-10-31T08:27:34;22.70;;;14.00;;
71204;SDS011;58935;54.498;18.544;2023-10-31T08:30:00;19.30;;;13.70;;
71204;SDS011;58935;54.498;18.544;2023-10-31T08:32:25;22.80;;;14.00;;
71204;SDS011;58935;54.498;18.544;2023-10-31T08:34:50;20.10;;;14.50;;
71204;SDS011;58935;54.498;18.544;2023-10-31T08:37:16;21.50;;;14.90;;
71204;SDS011;58935;54.498;18.544;2023-10-31T08:39:41;24.80;;;15.60;;
71204;SDS011;58935;54.498;18.544;2023-10-31T08:42:07;19.10;;;14.70;;
71204;SDS011;58935;54.498;18.544;2023-10-31T08:44:32;18.20;;;14.40;;
71204;SDS011;58935;54.498;18.544;2023-10-31T08:46:59;23.50;;;14.60;;
71204;SDS011;58935;54.498;18.544;2023-10-31T08:49:24;24.50;;;15.10;;
71204;SDS011;58935;54.498;18.544;2023-10-31T08:51:49;23.60;;;16.50;;
71204;SDS011;58935;54.498;18.544;2023-10-31T08:54:15;26.50;;;17.40;;
71204;SDS011;58935;54.498;18.544;2023-10-31T08:56:40;24.00;;;15.60;;
71204;SDS011;58935;54.498;18.544;2023-10-31T08:59:06;24.40;;;14.60;;
71204;SDS011;58935;54.498;18.544;2023-10-31T09:01:31;19.60;;;14.10;;
71204;SDS011;58935;54.498;18.544;2023-10-31T09:03:58;21.60;;;14.50;;
71204;SDS011;58935;54.498;18.544;2023-10-31T09:06:24;18.20;;;13.40;;
71204;SDS011;58935;54.498;18.544;2023-10-31T09:08:50;20.80;;;13.30;;
71204;SDS011;58935;54.498;18.544;2023-10-31T09:11:16;16.50;;;12.50;;
71204;SDS011;58935;54.498;18.544;2023-10-31T09:13:41;23.20;;;13.90;;
71204;SDS011;58935;54.498;18.544;2023-10-31T09:16:07;22.40;;;12.60;;
71204;SDS011;58935;54.498;18.544;2023-10-31T09:18:33;22.70;;;13.20;;
71204;SDS011;58935;54.498;18.544;2023-10-31T09:20:59;22.40;;;14.60;;
71204;SDS011;58935;54.498;18.544;2023-10-31T09:23:25;24.00;;;13.10;;
71204;SDS011;58935;54.498;18.544;2023-10-31T09:25:50;19.20;;;12.80;;
71204;SDS011;58935;54.498;18.544;2023-10-31T09:28:17;17.70;;;13.20;;
71204;SDS011;58935;54.498;18.544;2023-10-31T09:30:44;17.90;;;13.00;;
71204;SDS011;58935;54.498;18.544;2023-10-31T09:33:10;16.70;;;12.80;;
71204;SDS011;58935;54.498;18.544;2023-10-31T09:35:35;24.00;;;13.10;;
71204;SDS011;58935;54.498;18.544;2023-10-31T09:38:01;20.60;;;12.60;;
71204;SDS011;58935;54.498;18.544;2023-10-31T09:40:26;17.20;;;13.30;;
71204;SDS011;58935;54.498;18.544;2023-10-31T09:42:51;19.90;;;14.30;;
71204;SDS011;58935;54.498;18.544;2023-10-31T09:45:17;18.50;;;13.20;;
71204;SDS011;58935;54.498;18.544;2023-10-31T09:47:43;14.10;;;12.00;;
71204;SDS011;58935;54.498;18.544;2023-10-31T09:50:09;18.00;;;13.00;;
71204;SDS011;58935;54.498;18.544;2023-10-31T09:52:36;22.20;;;15.10;;
71204;SDS011;58935;54.498;18.544;2023-10-31T09:55:02;15.60;;;11.70;;
71204;SDS011;58935;54.498;18.544;2023-10-31T09:57:28;18.50;;;12.30;;
71204;SDS011;58935;54.498;18.544;2023-10-31T09:59:56;16.30;;;11.50;;
71204;SDS011;58935;54.498;18.544;2023-10-31T10:02:22;21.30;;;11.30;;
71204;SDS011;58935;54.498;18.544;2023-10-31T10:04:48;20.20;;;12.90;;
71204;SDS011;58935;54.498;18.544;2023-10-31T10:07:16;14.20;;;10.80;;
71204;SDS011;58935;54.498;18.544;2023-10-31T10:09:45;14.70;;;11.40;;
71204;SDS011;58935;54.498;18.544;2023-10-31T10:12:13;15.20;;;11.30;;
71204;SDS011;58935;54.498;18.544;2023-10-31T10:14:41;16.80;;;11.50;;
71204;SDS011;58935;54.498;18.544;2023-10-31T10:19:41;18.60;;;11.10;;
71204;SDS011;58935;54.498;18.544;2023-10-31T10:22:06;16.50;;;10.40;;
71204;SDS011;58935;54.498;18.544;2023-10-31T10:24:32;17.40;;;10.40;;
71204;SDS011;58935;54.498;18.544;2023-10-31T10:26:57;14.10;;;10.90;;
71204;SDS011;58935;54.498;18.544;2023-10-31T10:29:25;18.90;;;10.10;;
71204;SDS011;58935;54.498;18.544;2023-10-31T10:31:51;17.40;;;9.30;;
71204;SDS011;58935;54.498;18.544;2023-10-31T10:34:16;13.20;;;9.70;;
71204;SDS011;58935;54.498;18.544;2023-10-31T10:39:21;15.60;;;8.90;;
71204;SDS011;58935;54.498;18.544;2023-10-31T10:41:53;12.90;;;8.70;;
71204;SDS011;58935;54.498;18.544;2023-10-31T10:44:33;10.30;;;7.70;;
71204;SDS011;58935;54.498;18.544;2023-10-31T10:47:03;9.70;;;7.80;;
71204;SDS011;58935;54.498;18.544;2023-10-31T10:49:34;12.90;;;7.90;;
71204;SDS011;58935;54.498;18.544;2023-10-31T10:52:14;10.60;;;7.90;;
71204;SDS011;58935;54.498;18.544;2023-10-31T10:54:52;8.90;;;7.50;;
71204;SDS011;58935;54.498;18.544;2023-10-31T10:57:32;8.30;;;7.20;;
71204;SDS011;58935;54.498;18.544;2023-10-31T11:00:05;8.00;;;6.60;;
71204;SDS011;58935;54.498;18.544;2023-10-31T11:02:35;10.30;;;6.80;;
71204;SDS011;58935;54.498;18.544;2023-10-31T11:05:04;8.80;;;6.20;;
71204;SDS011;58935;54.498;18.544;2023-10-31T11:07:32;8.70;;;6.30;;
71204;SDS011;58935;54.498;18.544;2023-10-31T11:09:58;7.60;;;6.40;;
71204;SDS011;58935;54.498;18.544;2023-10-31T11:12:27;10.30;;;6.80;;
71204;SDS011;58935;54.498;18.544;2023-10-31T11:14:53;7.50;;;6.50;;
71204;SDS011;58935;54.498;18.544;2023-10-31T11:17:24;8.60;;;7.40;;
71204;SDS011;58935;54.498;18.544;2023-10-31T11:19:54;7.90;;;6.90;;
71204;SDS011;58935;54.498;18.544;2023-10-31T11:22:21;6.60;;;5.80;;
71204;SDS011;58935;54.498;18.544;2023-10-31T11:24:48;8.50;;;6.00;;
71204;SDS011;58935;54.498;18.544;2023-10-31T11:27:16;8.70;;;6.30;;
71204;SDS011;58935;54.498;18.544;2023-10-31T11:29:42;7.90;;;5.80;;
71204;SDS011;58935;54.498;18.544;2023-10-31T11:32:10;8.60;;;6.40;;
71204;SDS011;58935;54.498;18.544;2023-10-31T11:34:38;10.10;;;7.00;;
71204;SDS011;58935;54.498;18.544;2023-10-31T11:39:39;8.10;;;6.00;;
71204;SDS011;58935;54.498;18.544;2023-10-31T11:42:17;8.00;;;7.00;;
71204;SDS011;58935;54.498;18.544;2023-10-31T11:44:54;9.80;;;6.60;;
71204;SDS011;58935;54.498;18.544;2023-10-31T11:47:22;8.00;;;6.30;;
71204;SDS011;58935;54.498;18.544;2023-10-31T11:49:50;7.80;;;6.30;;
71204;SDS011;58935;54.498;18.544;2023-10-31T11:52:17;6.10;;;5.50;;
71204;SDS011;58935;54.498;18.544;2023-10-31T11:54:43;7.10;;;5.20;;
71204;SDS011;58935;54.498;18.544;2023-10-31T11:57:09;6.80;;;5.60;;
71204;SDS011;58935;54.498;18.544;2023-10-31T11:59:36;6.90;;;5.70;;
71204;SDS011;58935;54.498;18.544;2023-10-31T12:04:39;5.10;;;4.60;;
71204;SDS011;58935;54.498;18.544;2023-10-31T12:07:04;8.00;;;5.00;;
71204;SDS011;58935;54.498;18.544;2023-10-31T12:09:30;5.50;;;5.00;;
71204;SDS011;58935;54.498;18.544;2023-10-31T12:11:56;6.00;;;4.50;;
71204;SDS011;58935;54.498;18.544;2023-10-31T12:14:21;5.00;;;4.20;;
71204;SDS011;58935;54.498;18.544;2023-10-31T12:16:47;5.20;;;4.10;;
71204;SDS011;58935;54.498;18.544;2023-10-31T12:19:12;4.20;;;3.60;;
71204;SDS011;58935;54.498;18.544;2023-10-31T12:24:11;3.70;;;3.10;;
71204;SDS011;58935;54.498;18.544;2023-10-31T12:26:38;3.50;;;2.80;;
71204;SDS011;58935;54.498;18.544;2023-10-31T12:29:14;3.40;;;3.10;;
71204;SDS011;58935;54.498;18.544;2023-10-31T12:31:47;5.60;;;3.60;;
71204;SDS011;58935;54.498;18.544;2023-10-31T12:34:15;4.20;;;3.80;;
71204;SDS011;58935;54.498;18.544;2023-10-31T12:36:42;3.00;;;2.70;;
71204;SDS011;58935;54.498;18.544;2023-10-31T12:39:10;3.90;;;3.10;;
71204;SDS011;58935;54.498;18.544;2023-10-31T12:41:38;4.00;;;3.30;;
71204;SDS011;58935;54.498;18.544;2023-10-31T12:44:06;2.50;;;2.40;;
71204;SDS011;58935;54.498;18.544;2023-10-31T12:46:39;3.30;;;3.00;;
71204;SDS011;58935;54.498;18.544;2023-10-31T12:49:11;3.60;;;2.90;;
71204;SDS011;58935;54.498;18.544;2023-10-31T12:51:57;3.00;;;2.70;;
71204;SDS011;58935;54.498;18.544;2023-10-31T12:54:29;3.50;;;3.20;;
71204;SDS011;58935;54.498;18.544;2023-10-31T12:56:59;4.40;;;2.80;;
71204;SDS011;58935;54.498;18.544;2023-10-31T12:59:26;3.40;;;3.10;;
71204;SDS011;58935;54.498;18.544;2023-10-31T13:01:51;3.00;;;2.70;;
71204;SDS011;58935;54.498;18.544;2023-10-31T13:06:54;3.50;;;3.20;;
71204;SDS011;58935;54.498;18.544;2023-10-31T13:09:28;3.80;;;3.50;;
71204;SDS011;58935;54.498;18.544;2023-10-31T13:11:59;3.80;;;3.30;;
71204;SDS011;58935;54.498;18.544;2023-10-31T13:14:25;3.60;;;3.30;;
71204;SDS011;58935;54.498;18.544;2023-10-31T13:16:53;3.80;;;3.40;;
71204;SDS011;58935;54.498;18.544;2023-10-31T13:19:23;3.80;;;3.50;;
71204;SDS011;58935;54.498;18.544;2023-10-31T13:21:49;3.70;;;3.40;;
71204;SDS011;58935;54.498;18.544;2023-10-31T13:24:16;6.90;;;3.50;;
71204;SDS011;58935;54.498;18.544;2023-10-31T13:26:42;3.20;;;3.00;;
71204;SDS011;58935;54.498;18.544;2023-10-31T13:29:09;4.00;;;3.70;;
71204;SDS011;58935;54.498;18.544;2023-10-31T13:31:36;3.80;;;3.30;;
71204;SDS011;58935;54.498;18.544;2023-10-31T13:34:02;3.10;;;2.90;;
71204;SDS011;58935;54.498;18.544;2023-10-31T13:36:28;4.00;;;3.70;;
71204;SDS011;58935;54.498;18.544;2023-10-31T13:38:55;3.70;;;3.30;;
71204;SDS011;58935;54.498;18.544;2023-10-31T13:41:21;4.10;;;3.70;;
71204;SDS011;58935;54.498;18.544;2023-10-31T13:43:46;4.00;;;3.60;;
71204;SDS011;58935;54.498;18.544;2023-10-31T13:46:15;3.40;;;3.10;;
71204;SDS011;58935;54.498;18.544;2023-10-31T13:48:41;4.40;;;3.20;;
71204;SDS011;58935;54.498;18.544;2023-10-31T13:51:07;4.50;;;3.50;;
71204;SDS011;58935;54.498;18.544;2023-10-31T13:53:32;6.60;;;3.60;;
71204;SDS011;58935;54.498;18.544;2023-10-31T13:55:57;3.60;;;3.30;;
71204;SDS011;58935;54.498;18.544;2023-10-31T13:58:22;5.70;;;4.00;;
71204;SDS011;58935;54.498;18.544;2023-10-31T14:00:48;6.50;;;3.90;;
71204;SDS011;58935;54.498;18.544;2023-10-31T14:03:13;4.00;;;3.60;;
71204;SDS011;58935;54.498;18.544;2023-10-31T14:05:40;3.90;;;3.50;;
71204;SDS011;58935;54.498;18.544;2023-10-31T14:08:07;4.50;;;3.80;;
71204;SDS011;58935;54.498;18.544;2023-10-31T14:10:32;6.50;;;4.70;;
71204;SDS011;58935;54.498;18.544;2023-10-31T14:12:57;5.20;;;3.70;;
71204;SDS011;58935;54.498;18.544;2023-10-31T14:15:23;4.70;;;4.20;;
71204;SDS011;58935;54.498;18.544;2023-10-31T14:17:50;4.30;;;3.90;;
71204;SDS011;58935;54.498;18.544;2023-10-31T14:20:18;5.40;;;4.00;;
71204;SDS011;58935;54.498;18.544;2023-10-31T14:22:48;4.80;;;4.30;;
71204;SDS011;58935;54.498;18.544;2023-10-31T14:25:15;4.50;;;4.10;;
71204;SDS011;58935;54.498;18.544;2023-10-31T14:27:41;5.30;;;4.50;;
71204;SDS011;58935;54.498;18.544;2023-10-31T14:30:11;5.30;;;4.20;;